sensor_id;sensor_type;location;lat;lon;timestamp;temperature;humidity
13093;DHT22;6612;49.568;11.000;2023-02-24T00:00:09;13.60;62.10
13093;DHT22;6612;49.568;11.000;2023-02-24T00:02:57;13.60;62.20
13093;DHT22;6612;49.568;11.000;2023-02-24T00:05:24;13.60;62.00
13093;DHT22;6612;49.568;11.000;2023-02-24T00:07:51;13.60;62.10
13093;DHT22;6612;49.568;11.000;2023-02-24T00:10:19;13.60;62.20
13093;DHT22;6612;49.568;11.000;2023-02-24T00:12:46;13.60;62.20
13093;DHT22;6612;49.568;11.000;2023-02-24T00:15:15;13.60;62.30
13093;DHT22;6612;49.568;11.000;2023-02-24T00:17:42;13.60;62.40
13093;DHT22;6612;49.568;11.000;2023-02-24T00:20:10;13.60;62.30
13093;DHT22;6612;49.568;11.000;2023-02-24T00:22:38;13.60;62.40
13093;DHT22;6612;49.568;11.000;2023-02-24T00:25:05;13.60;62.40
13093;DHT22;6612;49.568;11.000;2023-02-24T00:27:33;13.60;62.40
13093;DHT22;6612;49.568;11.000;2023-02-24T00:30:00;13.60;62.40
13093;DHT22;6612;49.568;11.000;2023-02-24T00:32:32;13.60;62.50
13093;DHT22;6612;49.568;11.000;2023-02-24T00:35:00;13.60;62.50
13093;DHT22;6612;49.568;11.000;2023-02-24T00:37:27;13.60;62.40
13093;DHT22;6612;49.568;11.000;2023-02-24T00:39:55;13.60;62.40
13093;DHT22;6612;49.568;11.000;2023-02-24T00:42:23;13.60;62.50
13093;DHT22;6612;49.568;11.000;2023-02-24T00:44:50;13.60;62.50
13093;DHT22;6612;49.568;11.000;2023-02-24T00:47:18;13.60;62.50
13093;DHT22;6612;49.568;11.000;2023-02-24T00:49:48;13.60;62.60
13093;DHT22;6612;49.568;11.000;2023-02-24T00:52:17;13.60;62.70
13093;DHT22;6612;49.568;11.000;2023-02-24T00:54:45;13.60;62.70
13093;DHT22;6612;49.568;11.000;2023-02-24T00:57:13;13.60;62.70
13093;DHT22;6612;49.568;11.000;2023-02-24T00:59:42;13.60;62.70
13093;DHT22;6612;49.568;11.000;2023-02-24T01:02:12;13.60;62.60
13093;DHT22;6612;49.568;11.000;2023-02-24T01:04:39;13.60;62.60
13093;DHT22;6612;49.568;11.000;2023-02-24T01:07:10;13.50;62.50
13093;DHT22;6612;49.568;11.000;2023-02-24T01:09:39;13.50;62.60
13093;DHT22;6612;49.568;11.000;2023-02-24T01:12:07;13.60;62.60
13093;DHT22;6612;49.568;11.000;2023-02-24T01:15:03;13.50;62.60
13093;DHT22;6612;49.568;11.000;2023-02-24T01:17:34;13.50;62.50
13093;DHT22;6612;49.568;11.000;2023-02-24T01:20:02;13.60;62.70
13093;DHT22;6612;49.568;11.000;2023-02-24T01:22:43;13.50;62.60
13093;DHT22;6612;49.568;11.000;2023-02-24T01:25:10;13.50;62.70
13093;DHT22;6612;49.568;11.000;2023-02-24T01:27:38;13.50;62.70
13093;DHT22;6612;49.568;11.000;2023-02-24T01:30:07;13.50;62.70
13093;DHT22;6612;49.568;11.000;2023-02-24T01:32:38;13.50;62.70
13093;DHT22;6612;49.568;11.000;2023-02-24T01:35:06;13.50;62.70
13093;DHT22;6612;49.568;11.000;2023-02-24T01:37:33;13.50;62.70
13093;DHT22;6612;49.568;11.000;2023-02-24T01:40:02;13.50;62.70
13093;DHT22;6612;49.568;11.000;2023-02-24T01:42:36;13.50;62.70
13093;DHT22;6612;49.568;11.000;2023-02-24T01:45:13;13.50;62.70
13093;DHT22;6612;49.568;11.000;2023-02-24T01:47:41;13.50;62.70
13093;DHT22;6612;49.568;11.000;2023-02-24T01:50:11;13.50;62.60
13093;DHT22;6612;49.568;11.000;2023-02-24T01:52:41;13.50;62.60
13093;DHT22;6612;49.568;11.000;2023-02-24T01:55:13;13.50;62.60
13093;DHT22;6612;49.568;11.000;2023-02-24T01:57:45;13.50;62.70
13093;DHT22;6612;49.568;11.000;2023-02-24T02:00:15;13.50;62.60
13093;DHT22;6612;49.568;11.000;2023-02-24T02:03:06;13.50;62.70
13093;DHT22;6612;49.568;11.000;2023-02-24T02:05:37;13.50;62.70
13093;DHT22;6612;49.568;11.000;2023-02-24T02:08:04;13.50;62.70
13093;DHT22;6612;49.568;11.000;2023-02-24T02:10:35;13.50;62.70
13093;DHT22;6612;49.568;11.000;2023-02-24T02:13:04;13.50;62.70
13093;DHT22;6612;49.568;11.000;2023-02-24T02:15:36;13.50;62.70
13093;DHT22;6612;49.568;11.000;2023-02-24T02:18:11;13.50;62.80
13093;DHT22;6612;49.568;11.000;2023-02-24T02:21:08;13.50;62.80
13093;DHT22;6612;49.568;11.000;2023-02-24T02:24:08;13.50;63.10
13093;DHT22;6612;49.568;11.000;2023-02-24T02:27:12;13.50;63.10
13093;DHT22;6612;49.568;11.000;2023-02-24T02:35:35;13.50;62.70
13093;DHT22;6612;49.568;11.000;2023-02-24T02:38:10;13.50;62.60
13093;DHT22;6612;49.568;11.000;2023-02-24T02:40:43;13.50;62.60
13093;DHT22;6612;49.568;11.000;2023-02-24T02:43:16;13.40;62.60
13093;DHT22;6612;49.568;11.000;2023-02-24T02:45:48;13.40;62.60
13093;DHT22;6612;49.568;11.000;2023-02-24T02:48:25;13.40;62.60
13093;DHT22;6612;49.568;11.000;2023-02-24T02:50:57;13.40;62.60
13093;DHT22;6612;49.568;11.000;2023-02-24T02:53:32;13.40;62.60
13093;DHT22;6612;49.568;11.000;2023-02-24T02:56:06;13.40;62.60
13093;DHT22;6612;49.568;11.000;2023-02-24T02:58:39;13.40;62.70
13093;DHT22;6612;49.568;11.000;2023-02-24T03:01:08;13.30;62.50
13093;DHT22;6612;49.568;11.000;2023-02-24T03:03:39;13.30;62.50
13093;DHT22;6612;49.568;11.000;2023-02-24T03:06:14;13.30;62.50
13093;DHT22;6612;49.568;11.000;2023-02-24T03:08:48;13.30;62.60
13093;DHT22;6612;49.568;11.000;2023-02-24T03:11:17;13.30;62.60
13093;DHT22;6612;49.568;11.000;2023-02-24T03:13:47;13.30;62.50
13093;DHT22;6612;49.568;11.000;2023-02-24T03:16:17;13.30;62.60
13093;DHT22;6612;49.568;11.000;2023-02-24T03:18:48;13.20;62.50
13093;DHT22;6612;49.568;11.000;2023-02-24T03:21:24;13.20;62.60
13093;DHT22;6612;49.568;11.000;2023-02-24T03:23:55;13.30;62.80
13093;DHT22;6612;49.568;11.000;2023-02-24T03:26:25;13.20;62.60
13093;DHT22;6612;49.568;11.000;2023-02-24T03:28:59;13.20;62.70
13093;DHT22;6612;49.568;11.000;2023-02-24T03:31:32;13.20;62.80
13093;DHT22;6612;49.568;11.000;2023-02-24T03:34:03;13.20;62.70
13093;DHT22;6612;49.568;11.000;2023-02-24T03:36:33;13.20;62.80
13093;DHT22;6612;49.568;11.000;2023-02-24T03:39:00;13.20;62.80
13093;DHT22;6612;49.568;11.000;2023-02-24T03:41:34;13.20;62.70
13093;DHT22;6612;49.568;11.000;2023-02-24T03:44:04;13.20;62.80
13093;DHT22;6612;49.568;11.000;2023-02-24T03:46:34;13.10;62.70
13093;DHT22;6612;49.568;11.000;2023-02-24T03:49:06;13.10;62.60
13093;DHT22;6612;49.568;11.000;2023-02-24T03:51:39;13.10;62.70
13093;DHT22;6612;49.568;11.000;2023-02-24T03:54:18;13.10;62.60
13093;DHT22;6612;49.568;11.000;2023-02-24T03:57:02;13.10;62.60
13093;DHT22;6612;49.568;11.000;2023-02-24T03:59:40;13.10;62.70
13093;DHT22;6612;49.568;11.000;2023-02-24T04:02:15;13.00;62.60
13093;DHT22;6612;49.568;11.000;2023-02-24T04:04:47;13.00;62.60
13093;DHT22;6612;49.568;11.000;2023-02-24T04:07:25;13.00;62.60
13093;DHT22;6612;49.568;11.000;2023-02-24T04:10:02;13.00;62.70
13093;DHT22;6612;49.568;11.000;2023-02-24T04:12:35;13.00;62.70
13093;DHT22;6612;49.568;11.000;2023-02-24T04:15:08;13.00;62.70
13093;DHT22;6612;49.568;11.000;2023-02-24T04:17:41;12.90;62.50
13093;DHT22;6612;49.568;11.000;2023-02-24T04:20:11;12.90;62.60
13093;DHT22;6612;49.568;11.000;2023-02-24T04:22:44;12.90;62.60
13093;DHT22;6612;49.568;11.000;2023-02-24T04:25:15;12.90;62.70
13093;DHT22;6612;49.568;11.000;2023-02-24T04:27:45;12.90;62.80
13093;DHT22;6612;49.568;11.000;2023-02-24T04:30:14;12.90;62.90
13093;DHT22;6612;49.568;11.000;2023-02-24T04:32:41;12.90;62.90
13093;DHT22;6612;49.568;11.000;2023-02-24T04:35:11;12.90;63.00
13093;DHT22;6612;49.568;11.000;2023-02-24T04:37:40;12.90;63.10
13093;DHT22;6612;49.568;11.000;2023-02-24T04:40:13;13.00;63.10
13093;DHT22;6612;49.568;11.000;2023-02-24T04:42:42;13.00;63.20
13093;DHT22;6612;49.568;11.000;2023-02-24T04:45:14;13.00;63.10
13093;DHT22;6612;49.568;11.000;2023-02-24T04:47:43;13.00;63.10
13093;DHT22;6612;49.568;11.000;2023-02-24T04:50:14;13.00;63.10
13093;DHT22;6612;49.568;11.000;2023-02-24T04:52:48;13.00;63.10
13093;DHT22;6612;49.568;11.000;2023-02-24T04:55:18;13.00;63.00
13093;DHT22;6612;49.568;11.000;2023-02-24T04:57:47;13.00;62.90
13093;DHT22;6612;49.568;11.000;2023-02-24T05:00:15;13.00;62.70
13093;DHT22;6612;49.568;11.000;2023-02-24T05:02:52;13.00;62.70
13093;DHT22;6612;49.568;11.000;2023-02-24T05:05:22;12.90;62.50
13093;DHT22;6612;49.568;11.000;2023-02-24T05:07:50;13.00;62.40
13093;DHT22;6612;49.568;11.000;2023-02-24T05:10:19;12.90;62.20
13093;DHT22;6612;49.568;11.000;2023-02-24T05:12:46;12.90;62.30
13093;DHT22;6612;49.568;11.000;2023-02-24T05:15:13;12.80;62.20
13093;DHT22;6612;49.568;11.000;2023-02-24T05:17:40;12.80;62.20
13093;DHT22;6612;49.568;11.000;2023-02-24T05:20:09;12.80;62.10
13093;DHT22;6612;49.568;11.000;2023-02-24T05:22:53;12.70;62.00
13093;DHT22;6612;49.568;11.000;2023-02-24T05:25:22;12.70;62.00
13093;DHT22;6612;49.568;11.000;2023-02-24T05:27:51;12.70;62.20
13093;DHT22;6612;49.568;11.000;2023-02-24T05:30:18;12.70;62.30
13093;DHT22;6612;49.568;11.000;2023-02-24T05:32:45;12.70;62.50
13093;DHT22;6612;49.568;11.000;2023-02-24T05:35:12;12.60;62.50
13093;DHT22;6612;49.568;11.000;2023-02-24T05:37:39;12.70;62.70
13093;DHT22;6612;49.568;11.000;2023-02-24T05:40:09;12.60;62.70
13093;DHT22;6612;49.568;11.000;2023-02-24T05:42:41;12.70;62.80
13093;DHT22;6612;49.568;11.000;2023-02-24T05:45:10;12.70;62.70
13093;DHT22;6612;49.568;11.000;2023-02-24T05:47:38;12.70;62.60
13093;DHT22;6612;49.568;11.000;2023-02-24T05:50:06;12.60;62.50
13093;DHT22;6612;49.568;11.000;2023-02-24T05:52:36;12.60;62.50
13093;DHT22;6612;49.568;11.000;2023-02-24T05:55:05;12.60;62.50
13093;DHT22;6612;49.568;11.000;2023-02-24T05:57:38;12.60;62.60
13093;DHT22;6612;49.568;11.000;2023-02-24T06:00:09;12.60;62.60
13093;DHT22;6612;49.568;11.000;2023-02-24T06:02:41;12.60;62.70
13093;DHT22;6612;49.568;11.000;2023-02-24T06:05:15;12.60;62.60
13093;DHT22;6612;49.568;11.000;2023-02-24T06:07:53;12.60;62.60
13093;DHT22;6612;49.568;11.000;2023-02-24T06:10:28;12.60;62.50
13093;DHT22;6612;49.568;11.000;2023-02-24T06:12:56;12.60;62.60
13093;DHT22;6612;49.568;11.000;2023-02-24T06:15:24;12.60;62.50
13093;DHT22;6612;49.568;11.000;2023-02-24T06:17:51;12.60;62.70
13093;DHT22;6612;49.568;11.000;2023-02-24T06:20:22;12.60;62.70
13093;DHT22;6612;49.568;11.000;2023-02-24T06:22:49;12.50;62.60
13093;DHT22;6612;49.568;11.000;2023-02-24T06:25:19;12.60;62.80
13093;DHT22;6612;49.568;11.000;2023-02-24T06:27:50;12.60;62.70
13093;DHT22;6612;49.568;11.000;2023-02-24T06:30:20;12.60;62.70
13093;DHT22;6612;49.568;11.000;2023-02-24T06:32:49;12.50;62.60
13093;DHT22;6612;49.568;11.000;2023-02-24T06:35:17;12.60;62.70
13093;DHT22;6612;49.568;11.000;2023-02-24T06:37:44;12.60;62.70
13093;DHT22;6612;49.568;11.000;2023-02-24T06:40:11;12.50;62.70
13093;DHT22;6612;49.568;11.000;2023-02-24T06:42:44;12.50;62.70
13093;DHT22;6612;49.568;11.000;2023-02-24T06:45:12;12.50;62.90
13093;DHT22;6612;49.568;11.000;2023-02-24T06:47:40;12.50;62.90
13093;DHT22;6612;49.568;11.000;2023-02-24T06:50:10;12.60;63.00
13093;DHT22;6612;49.568;11.000;2023-02-24T06:52:38;12.60;63.10
13093;DHT22;6612;49.568;11.000;2023-02-24T06:55:09;12.60;63.20
13093;DHT22;6612;49.568;11.000;2023-02-24T06:57:54;12.60;63.20
13093;DHT22;6612;49.568;11.000;2023-02-24T07:00:28;12.60;63.20
13093;DHT22;6612;49.568;11.000;2023-02-24T07:03:07;12.60;63.20
13093;DHT22;6612;49.568;11.000;2023-02-24T07:05:44;12.70;63.30
13093;DHT22;6612;49.568;11.000;2023-02-24T07:08:19;12.70;63.30
13093;DHT22;6612;49.568;11.000;2023-02-24T07:10:52;12.70;63.30
13093;DHT22;6612;49.568;11.000;2023-02-24T07:13:20;12.70;63.30
13093;DHT22;6612;49.568;11.000;2023-02-24T07:15:49;12.70;63.20
13093;DHT22;6612;49.568;11.000;2023-02-24T07:18:17;12.80;63.40
13093;DHT22;6612;49.568;11.000;2023-02-24T07:20:45;12.80;63.40
13093;DHT22;6612;49.568;11.000;2023-02-24T07:23:13;12.80;63.40
13093;DHT22;6612;49.568;11.000;2023-02-24T07:25:41;12.80;63.40
13093;DHT22;6612;49.568;11.000;2023-02-24T07:28:11;12.90;63.40
13093;DHT22;6612;49.568;11.000;2023-02-24T07:30:39;12.90;63.40
13093;DHT22;6612;49.568;11.000;2023-02-24T07:33:06;12.90;63.30
13093;DHT22;6612;49.568;11.000;2023-02-24T07:35:34;13.00;63.40
13093;DHT22;6612;49.568;11.000;2023-02-24T07:38:02;13.00;63.30
13093;DHT22;6612;49.568;11.000;2023-02-24T07:40:31;13.00;63.30
13093;DHT22;6612;49.568;11.000;2023-02-24T07:42:59;13.00;63.20
13093;DHT22;6612;49.568;11.000;2023-02-24T07:45:26;13.00;63.10
13093;DHT22;6612;49.568;11.000;2023-02-24T07:47:54;13.10;63.20
13093;DHT22;6612;49.568;11.000;2023-02-24T07:50:21;13.10;63.30
13093;DHT22;6612;49.568;11.000;2023-02-24T07:52:48;13.10;63.20
13093;DHT22;6612;49.568;11.000;2023-02-24T07:55:17;13.20;63.30
13093;DHT22;6612;49.568;11.000;2023-02-24T07:57:46;13.20;63.20
13093;DHT22;6612;49.568;11.000;2023-02-24T08:00:14;13.20;63.20
13093;DHT22;6612;49.568;11.000;2023-02-24T08:02:44;13.20;63.20
13093;DHT22;6612;49.568;11.000;2023-02-24T08:05:12;13.30;63.20
13093;DHT22;6612;49.568;11.000;2023-02-24T08:07:39;13.30;63.20
13093;DHT22;6612;49.568;11.000;2023-02-24T08:10:08;13.30;63.10
13093;DHT22;6612;49.568;11.000;2023-02-24T08:12:40;13.40;63.10
13093;DHT22;6612;49.568;11.000;2023-02-24T08:15:12;13.40;63.00
13093;DHT22;6612;49.568;11.000;2023-02-24T08:17:50;13.40;63.00
13093;DHT22;6612;49.568;11.000;2023-02-24T08:20:18;13.40;62.90
13093;DHT22;6612;49.568;11.000;2023-02-24T08:22:51;13.50;63.00
13093;DHT22;6612;49.568;11.000;2023-02-24T08:25:19;13.50;63.00
13093;DHT22;6612;49.568;11.000;2023-02-24T08:27:51;13.50;63.00
13093;DHT22;6612;49.568;11.000;2023-02-24T08:30:22;13.60;63.10
13093;DHT22;6612;49.568;11.000;2023-02-24T08:32:51;13.60;63.10
13093;DHT22;6612;49.568;11.000;2023-02-24T08:35:24;13.60;63.00
13093;DHT22;6612;49.568;11.000;2023-02-24T08:37:59;13.60;62.80
13093;DHT22;6612;49.568;11.000;2023-02-24T08:40:31;13.60;62.70
13093;DHT22;6612;49.568;11.000;2023-02-24T08:43:20;13.70;62.70
13093;DHT22;6612;49.568;11.000;2023-02-24T08:45:58;13.70;62.60
13093;DHT22;6612;49.568;11.000;2023-02-24T08:48:30;13.70;62.50
13093;DHT22;6612;49.568;11.000;2023-02-24T08:51:06;13.80;62.70
13093;DHT22;6612;49.568;11.000;2023-02-24T08:53:34;13.80;62.60
13093;DHT22;6612;49.568;11.000;2023-02-24T08:56:06;13.80;62.60
13093;DHT22;6612;49.568;11.000;2023-02-24T08:58:39;13.90;62.70
13093;DHT22;6612;49.568;11.000;2023-02-24T09:01:14;13.90;62.50
13093;DHT22;6612;49.568;11.000;2023-02-24T09:03:45;13.90;62.40
13093;DHT22;6612;49.568;11.000;2023-02-24T09:06:17;14.00;62.40
13093;DHT22;6612;49.568;11.000;2023-02-24T09:08:51;14.00;62.30
13093;DHT22;6612;49.568;11.000;2023-02-24T09:11:38;14.10;62.20
13093;DHT22;6612;49.568;11.000;2023-02-24T09:14:14;14.10;61.90
13093;DHT22;6612;49.568;11.000;2023-02-24T09:16:46;14.10;61.80
13093;DHT22;6612;49.568;11.000;2023-02-24T09:19:33;14.20;61.80
13093;DHT22;6612;49.568;11.000;2023-02-24T09:22:28;14.20;61.80
13093;DHT22;6612;49.568;11.000;2023-02-24T09:24:56;14.20;61.90
13093;DHT22;6612;49.568;11.000;2023-02-24T09:27:43;14.30;62.10
13093;DHT22;6612;49.568;11.000;2023-02-24T09:30:15;14.30;61.90
13093;DHT22;6612;49.568;11.000;2023-02-24T09:33:04;14.40;61.90
13093;DHT22;6612;49.568;11.000;2023-02-24T09:35:33;14.40;61.60
13093;DHT22;6612;49.568;11.000;2023-02-24T09:38:02;14.40;61.20
13093;DHT22;6612;49.568;11.000;2023-02-24T09:40:32;14.50;61.10
13093;DHT22;6612;49.568;11.000;2023-02-24T09:43:16;14.50;61.10
13093;DHT22;6612;49.568;11.000;2023-02-24T09:45:52;14.50;61.10
13093;DHT22;6612;49.568;11.000;2023-02-24T09:48:33;14.60;61.30
13093;DHT22;6612;49.568;11.000;2023-02-24T09:51:13;14.60;61.30
13093;DHT22;6612;49.568;11.000;2023-02-24T09:53:46;14.60;61.50
13093;DHT22;6612;49.568;11.000;2023-02-24T09:56:22;14.70;61.50
13093;DHT22;6612;49.568;11.000;2023-02-24T09:58:59;14.80;61.20
13093;DHT22;6612;49.568;11.000;2023-02-24T10:01:55;14.80;61.10
13093;DHT22;6612;49.568;11.000;2023-02-24T10:04:42;14.90;60.80
13093;DHT22;6612;49.568;11.000;2023-02-24T10:07:16;15.00;60.70
13093;DHT22;6612;49.568;11.000;2023-02-24T10:09:48;15.00;61.00
13093;DHT22;6612;49.568;11.000;2023-02-24T10:12:20;15.10;60.80
13093;DHT22;6612;49.568;11.000;2023-02-24T10:14:51;15.10;60.60
13093;DHT22;6612;49.568;11.000;2023-02-24T10:17:41;15.20;60.60
13093;DHT22;6612;49.568;11.000;2023-02-24T10:20:15;15.20;60.40
13093;DHT22;6612;49.568;11.000;2023-02-24T10:23:00;15.30;60.30
13093;DHT22;6612;49.568;11.000;2023-02-24T10:25:39;15.30;60.40
13093;DHT22;6612;49.568;11.000;2023-02-24T10:28:18;15.40;60.10
13093;DHT22;6612;49.568;11.000;2023-02-24T10:30:55;15.40;60.10
13093;DHT22;6612;49.568;11.000;2023-02-24T10:33:37;15.50;60.40
13093;DHT22;6612;49.568;11.000;2023-02-24T10:36:12;15.60;60.50
13093;DHT22;6612;49.568;11.000;2023-02-24T10:38:42;15.70;60.40
13093;DHT22;6612;49.568;11.000;2023-02-24T10:41:12;15.80;60.10
13093;DHT22;6612;49.568;11.000;2023-02-24T10:43:40;15.90;60.00
13093;DHT22;6612;49.568;11.000;2023-02-24T10:46:27;15.90;59.80
13093;DHT22;6612;49.568;11.000;2023-02-24T10:49:00;16.00;59.40
13093;DHT22;6612;49.568;11.000;2023-02-24T10:51:30;16.10;59.80
13093;DHT22;6612;49.568;11.000;2023-02-24T10:54:12;16.20;59.60
13093;DHT22;6612;49.568;11.000;2023-02-24T10:57:03;16.30;58.60
13093;DHT22;6612;49.568;11.000;2023-02-24T10:59:52;16.30;59.00
13093;DHT22;6612;49.568;11.000;2023-02-24T11:02:38;16.40;58.00
13093;DHT22;6612;49.568;11.000;2023-02-24T11:05:23;16.40;58.40
13093;DHT22;6612;49.568;11.000;2023-02-24T11:08:05;16.40;58.00
13093;DHT22;6612;49.568;11.000;2023-02-24T11:10:38;16.50;57.90
13093;DHT22;6612;49.568;11.000;2023-02-24T11:13:18;16.50;57.70
13093;DHT22;6612;49.568;11.000;2023-02-24T11:16:07;16.50;57.90
13093;DHT22;6612;49.568;11.000;2023-02-24T11:18:53;16.60;57.70
13093;DHT22;6612;49.568;11.000;2023-02-24T11:21:24;16.60;58.10
13093;DHT22;6612;49.568;11.000;2023-02-24T11:23:55;16.70;58.30
13093;DHT22;6612;49.568;11.000;2023-02-24T11:26:25;16.80;58.10
13093;DHT22;6612;49.568;11.000;2023-02-24T11:29:07;16.90;57.80
13093;DHT22;6612;49.568;11.000;2023-02-24T11:31:49;17.00;57.10
13093;DHT22;6612;49.568;11.000;2023-02-24T11:37:01;17.10;56.70
13093;DHT22;6612;49.568;11.000;2023-02-24T11:44:41;17.20;56.20
13093;DHT22;6612;49.568;11.000;2023-02-24T11:47:13;17.20;55.60
13093;DHT22;6612;49.568;11.000;2023-02-24T11:49:44;17.30;55.60
13093;DHT22;6612;49.568;11.000;2023-02-24T11:52:18;17.30;55.40
13093;DHT22;6612;49.568;11.000;2023-02-24T11:54:49;17.40;55.10
13093;DHT22;6612;49.568;11.000;2023-02-24T11:57:22;17.40;55.30
13093;DHT22;6612;49.568;11.000;2023-02-24T11:59:59;17.50;54.90
13093;DHT22;6612;49.568;11.000;2023-02-24T12:02:34;17.50;55.30
13093;DHT22;6612;49.568;11.000;2023-02-24T12:05:09;17.60;54.40
13093;DHT22;6612;49.568;11.000;2023-02-24T12:07:42;17.60;54.40
13093;DHT22;6612;49.568;11.000;2023-02-24T12:10:16;17.60;54.30
13093;DHT22;6612;49.568;11.000;2023-02-24T12:12:49;17.70;53.90
13093;DHT22;6612;49.568;11.000;2023-02-24T12:15:21;17.70;54.00
13093;DHT22;6612;49.568;11.000;2023-02-24T12:17:55;17.80;53.70
13093;DHT22;6612;49.568;11.000;2023-02-24T12:20:28;17.80;53.50
13093;DHT22;6612;49.568;11.000;2023-02-24T12:23:04;17.90;53.50
13093;DHT22;6612;49.568;11.000;2023-02-24T12:25:43;17.90;52.90
13093;DHT22;6612;49.568;11.000;2023-02-24T12:28:17;18.00;52.60
13093;DHT22;6612;49.568;11.000;2023-02-24T12:30:58;18.00;52.50
13093;DHT22;6612;49.568;11.000;2023-02-24T12:33:39;18.00;51.60
13093;DHT22;6612;49.568;11.000;2023-02-24T12:36:17;18.00;51.40
13093;DHT22;6612;49.568;11.000;2023-02-24T12:38:54;18.00;51.30
13093;DHT22;6612;49.568;11.000;2023-02-24T12:41:39;17.90;51.00
13093;DHT22;6612;49.568;11.000;2023-02-24T12:44:20;17.90;50.40
13093;DHT22;6612;49.568;11.000;2023-02-24T12:46:55;17.80;50.60
13093;DHT22;6612;49.568;11.000;2023-02-24T12:49:42;17.80;50.70
13093;DHT22;6612;49.568;11.000;2023-02-24T12:52:19;17.70;50.40
13093;DHT22;6612;49.568;11.000;2023-02-24T12:54:56;17.60;50.60
13093;DHT22;6612;49.568;11.000;2023-02-24T12:57:33;17.60;50.40
13093;DHT22;6612;49.568;11.000;2023-02-24T13:00:09;17.50;50.40
13093;DHT22;6612;49.568;11.000;2023-02-24T13:02:48;17.40;50.30
13093;DHT22;6612;49.568;11.000;2023-02-24T13:05:22;17.40;50.20
13093;DHT22;6612;49.568;11.000;2023-02-24T13:08:06;17.30;50.40
13093;DHT22;6612;49.568;11.000;2023-02-24T13:10:41;17.30;50.30
13093;DHT22;6612;49.568;11.000;2023-02-24T13:13:13;17.20;50.20
13093;DHT22;6612;49.568;11.000;2023-02-24T13:15:50;17.20;51.00
13093;DHT22;6612;49.568;11.000;2023-02-24T13:18:23;17.10;50.20
13093;DHT22;6612;49.568;11.000;2023-02-24T13:21:04;17.10;50.50
13093;DHT22;6612;49.568;11.000;2023-02-24T13:23:32;17.10;50.20
13093;DHT22;6612;49.568;11.000;2023-02-24T13:26:00;17.20;50.90
13093;DHT22;6612;49.568;11.000;2023-02-24T13:28:29;17.20;50.60
13093;DHT22;6612;49.568;11.000;2023-02-24T13:30:59;17.20;50.70
13093;DHT22;6612;49.568;11.000;2023-02-24T13:33:29;17.20;50.70
13093;DHT22;6612;49.568;11.000;2023-02-24T13:36:10;17.30;50.70
13093;DHT22;6612;49.568;11.000;2023-02-24T13:38:40;17.30;49.80
13093;DHT22;6612;49.568;11.000;2023-02-24T13:41:23;17.30;50.20
13093;DHT22;6612;49.568;11.000;2023-02-24T13:44:00;17.40;49.50
13093;DHT22;6612;49.568;11.000;2023-02-24T13:46:32;17.40;50.10
13093;DHT22;6612;49.568;11.000;2023-02-24T13:49:31;17.30;49.60
13093;DHT22;6612;49.568;11.000;2023-02-24T13:52:03;17.30;48.90
13093;DHT22;6612;49.568;11.000;2023-02-24T13:55:17;17.20;49.60
13093;DHT22;6612;49.568;11.000;2023-02-24T14:00:59;17.20;48.90
13093;DHT22;6612;49.568;11.000;2023-02-24T14:03:28;17.10;48.80
13093;DHT22;6612;49.568;11.000;2023-02-24T14:05:56;17.00;49.30
13093;DHT22;6612;49.568;11.000;2023-02-24T14:08:36;17.00;49.30
13093;DHT22;6612;49.568;11.000;2023-02-24T14:11:08;17.00;49.20
13093;DHT22;6612;49.568;11.000;2023-02-24T14:13:37;16.90;49.50
13093;DHT22;6612;49.568;11.000;2023-02-24T14:16:06;16.90;50.20
13093;DHT22;6612;49.568;11.000;2023-02-24T14:18:34;16.90;49.50
13093;DHT22;6612;49.568;11.000;2023-02-24T14:21:02;16.90;49.50
13093;DHT22;6612;49.568;11.000;2023-02-24T14:23:31;16.90;49.40
13093;DHT22;6612;49.568;11.000;2023-02-24T14:26:01;16.80;49.30
13093;DHT22;6612;49.568;11.000;2023-02-24T14:28:30;16.80;49.30
13093;DHT22;6612;49.568;11.000;2023-02-24T14:31:03;16.80;49.30
13093;DHT22;6612;49.568;11.000;2023-02-24T14:33:33;16.70;49.10
13093;DHT22;6612;49.568;11.000;2023-02-24T14:36:03;16.70;49.30
13093;DHT22;6612;49.568;11.000;2023-02-24T14:38:33;16.70;49.30
13093;DHT22;6612;49.568;11.000;2023-02-24T14:41:03;16.70;49.30
13093;DHT22;6612;49.568;11.000;2023-02-24T14:43:30;16.70;49.40
13093;DHT22;6612;49.568;11.000;2023-02-24T14:46:04;16.60;49.40
13093;DHT22;6612;49.568;11.000;2023-02-24T14:48:31;16.60;49.10
13093;DHT22;6612;49.568;11.000;2023-02-24T14:51:01;16.60;49.50
13093;DHT22;6612;49.568;11.000;2023-02-24T14:53:33;16.60;49.30
13093;DHT22;6612;49.568;11.000;2023-02-24T14:56:02;16.60;49.20
13093;DHT22;6612;49.568;11.000;2023-02-24T14:58:35;16.50;49.30
13093;DHT22;6612;49.568;11.000;2023-02-24T15:01:07;16.50;49.20
13093;DHT22;6612;49.568;11.000;2023-02-24T15:03:44;16.50;49.20
13093;DHT22;6612;49.568;11.000;2023-02-24T15:06:14;16.50;49.20
13093;DHT22;6612;49.568;11.000;2023-02-24T15:08:47;16.40;49.30
13093;DHT22;6612;49.568;11.000;2023-02-24T15:11:20;16.40;49.30
13093;DHT22;6612;49.568;11.000;2023-02-24T15:13:50;16.40;49.00
13093;DHT22;6612;49.568;11.000;2023-02-24T15:16:22;16.30;49.10
13093;DHT22;6612;49.568;11.000;2023-02-24T15:18:50;16.30;49.00
13093;DHT22;6612;49.568;11.000;2023-02-24T15:21:20;16.30;49.10
13093;DHT22;6612;49.568;11.000;2023-02-24T15:23:48;16.20;48.90
13093;DHT22;6612;49.568;11.000;2023-02-24T15:26:26;16.20;48.90
13093;DHT22;6612;49.568;11.000;2023-02-24T15:28:58;16.20;48.50
13093;DHT22;6612;49.568;11.000;2023-02-24T15:31:28;16.10;48.60
13093;DHT22;6612;49.568;11.000;2023-02-24T15:33:57;16.10;48.70
13093;DHT22;6612;49.568;11.000;2023-02-24T15:36:26;16.00;48.70
13093;DHT22;6612;49.568;11.000;2023-02-24T15:38:55;16.00;48.80
13093;DHT22;6612;49.568;11.000;2023-02-24T15:41:23;16.00;48.80
13093;DHT22;6612;49.568;11.000;2023-02-24T15:43:52;15.90;48.90
13093;DHT22;6612;49.568;11.000;2023-02-24T15:46:28;15.90;48.80
13093;DHT22;6612;49.568;11.000;2023-02-24T15:48:56;15.80;48.50
13093;DHT22;6612;49.568;11.000;2023-02-24T15:51:31;15.80;48.80
13093;DHT22;6612;49.568;11.000;2023-02-24T15:54:00;15.70;48.60
13093;DHT22;6612;49.568;11.000;2023-02-24T15:56:28;15.70;48.70
13093;DHT22;6612;49.568;11.000;2023-02-24T15:58:56;15.60;48.70
13093;DHT22;6612;49.568;11.000;2023-02-24T16:01:28;15.60;48.70
13093;DHT22;6612;49.568;11.000;2023-02-24T16:03:57;15.50;48.60
13093;DHT22;6612;49.568;11.000;2023-02-24T16:06:24;15.50;48.70
13093;DHT22;6612;49.568;11.000;2023-02-24T16:08:54;15.40;48.50
13093;DHT22;6612;49.568;11.000;2023-02-24T16:11:25;15.40;49.00
13093;DHT22;6612;49.568;11.000;2023-02-24T16:13:54;15.30;48.30
13093;DHT22;6612;49.568;11.000;2023-02-24T16:16:22;15.20;48.20
13093;DHT22;6612;49.568;11.000;2023-02-24T16:18:51;15.20;48.30
13093;DHT22;6612;49.568;11.000;2023-02-24T16:21:18;15.10;48.20